createdAt,value
2023-04-14T00:00:22.324Z,26.80
2023-04-14T00:01:22.329Z,26.80
2023-04-14T00:02:22.505Z,26.78
2023-04-14T00:03:22.613Z,26.82
2023-04-14T00:04:22.570Z,26.82
2023-04-14T00:05:22.720Z,26.80
2023-04-14T00:06:22.419Z,26.80
2023-04-14T00:07:22.436Z,26.80
2023-04-14T00:08:22.431Z,26.83
2023-04-14T00:09:22.439Z,26.80
2023-04-14T00:10:22.465Z,26.82
2023-04-14T00:11:22.464Z,26.79
2023-04-14T00:12:22.485Z,26.82
2023-04-14T00:13:22.492Z,26.79
2023-04-14T00:14:22.528Z,26.79
2023-04-14T00:15:22.534Z,26.80
2023-04-14T00:16:22.568Z,26.82
2023-04-14T00:17:22.555Z,26.79
2023-04-14T00:18:22.543Z,26.80
2023-04-14T00:19:22.559Z,26.79
2023-04-14T00:20:22.591Z,26.80
2023-04-14T00:21:22.599Z,26.79
2023-04-14T00:22:22.651Z,26.79
2023-04-14T00:23:22.699Z,26.76
2023-04-14T00:24:22.654Z,26.79
2023-04-14T00:25:22.637Z,26.78
2023-04-14T00:26:22.674Z,26.79
2023-04-14T00:27:22.702Z,26.80
2023-04-14T00:28:22.702Z,26.78
2023-04-14T00:29:22.689Z,26.79
2023-04-14T00:30:22.719Z,26.80
2023-04-14T00:31:22.807Z,26.80
2023-04-14T00:32:22.743Z,26.79
2023-04-14T00:33:22.762Z,26.79
2023-04-14T00:34:22.766Z,26.79
2023-04-14T00:35:22.884Z,26.79
2023-04-14T00:36:22.845Z,26.78
2023-04-14T00:37:22.816Z,26.79
2023-04-14T00:38:22.844Z,26.76
2023-04-14T00:39:22.810Z,26.79
2023-04-14T00:40:22.864Z,26.78
2023-04-14T00:41:22.846Z,26.79
2023-04-14T00:42:22.915Z,26.78
2023-04-14T00:43:22.943Z,26.80
2023-04-14T00:44:22.968Z,26.78
2023-04-14T00:45:22.937Z,26.79
2023-04-14T00:46:23.042Z,26.76
2023-04-14T00:47:23.130Z,26.78
2023-04-14T00:48:22.987Z,26.75
2023-04-14T00:49:23.007Z,26.78
2023-04-14T00:50:23.004Z,26.78
2023-04-14T00:51:23.025Z,26.79
2023-04-14T00:52:23.046Z,26.78
2023-04-14T00:53:23.020Z,26.79
2023-04-14T00:54:23.078Z,26.78
2023-04-14T00:55:23.070Z,26.80
2023-04-14T00:56:23.088Z,26.75
2023-04-14T00:57:23.086Z,26.78
2023-04-14T00:58:23.097Z,26.76
2023-04-14T00:59:23.113Z,26.79
2023-04-14T01:00:23.160Z,26.79
2023-04-14T01:01:23.187Z,26.79
2023-04-14T01:02:23.405Z,26.76
2023-04-14T01:03:23.384Z,26.78
2023-04-14T01:04:23.332Z,26.78
2023-04-14T01:05:23.286Z,26.78
2023-04-14T01:06:23.215Z,26.75
2023-04-14T01:07:23.237Z,26.75
2023-04-14T01:08:23.222Z,26.76
2023-04-14T01:09:23.239Z,26.78
2023-04-14T01:10:23.232Z,26.76
2023-04-14T01:11:23.252Z,26.76
2023-04-14T01:12:23.275Z,26.76
2023-04-14T01:13:23.268Z,26.76
2023-04-14T01:14:23.269Z,26.75
2023-04-14T01:15:23.266Z,26.78
2023-04-14T01:16:23.342Z,26.75
2023-04-14T01:17:23.363Z,26.76
2023-04-14T01:18:23.340Z,26.78
2023-04-14T01:19:23.347Z,26.76
2023-04-14T01:20:23.360Z,26.78
2023-04-14T01:21:23.411Z,26.76
2023-04-14T01:22:23.394Z,26.76
2023-04-14T01:23:23.385Z,26.78
2023-04-14T01:24:23.420Z,26.75
2023-04-14T01:25:23.422Z,26.75
2023-04-14T01:26:23.437Z,26.76
2023-04-14T01:27:23.474Z,26.75
2023-04-14T01:28:23.469Z,26.75
2023-04-14T01:29:23.525Z,26.76
2023-04-14T01:30:23.498Z,26.75
2023-04-14T01:31:23.594Z,26.75
2023-04-14T01:32:23.520Z,26.75
2023-04-14T01:33:23.506Z,26.75
2023-04-14T01:34:23.496Z,26.75
2023-04-14T01:35:23.531Z,26.75
2023-04-14T01:36:23.518Z,26.73
2023-04-14T01:37:23.530Z,26.73
2023-04-14T01:38:23.690Z,26.78
2023-04-14T01:39:23.580Z,26.76
2023-04-14T01:40:23.584Z,26.73
2023-04-14T01:41:23.637Z,26.72
2023-04-14T01:42:23.612Z,26.72
2023-04-14T01:43:23.632Z,26.75
2023-04-14T01:44:23.674Z,26.72
2023-04-14T01:45:23.721Z,26.73
2023-04-14T01:46:23.688Z,26.73
2023-04-14T01:47:23.786Z,26.75
2023-04-14T01:48:23.735Z,26.75
2023-04-14T01:49:23.834Z,26.72
2023-04-14T01:50:23.774Z,26.72
2023-04-14T01:51:23.804Z,26.73
2023-04-14T01:52:23.810Z,26.73
2023-04-14T01:53:23.842Z,26.72
2023-04-14T01:54:23.836Z,26.70
2023-04-14T01:55:23.850Z,26.70
2023-04-14T01:56:23.867Z,26.75
2023-04-14T01:57:23.866Z,26.72
2023-04-14T01:58:23.910Z,26.73
2023-04-14T01:59:23.892Z,26.72
2023-04-14T02:00:23.932Z,26.78
2023-04-14T02:01:24.004Z,26.72
2023-04-14T02:02:23.996Z,26.73
2023-04-14T02:03:24.105Z,26.72
2023-04-14T02:04:23.963Z,26.73
2023-04-14T02:05:23.974Z,26.75
2023-04-14T02:06:24.017Z,26.75
2023-04-14T02:07:24.025Z,26.70
2023-04-14T02:08:24.032Z,26.72
2023-04-14T02:09:24.042Z,26.72
2023-04-14T02:10:24.063Z,26.73
2023-04-14T02:11:24.078Z,26.73
2023-04-14T02:12:24.122Z,26.73
2023-04-14T02:13:24.138Z,26.73
2023-04-14T02:14:24.128Z,26.73
2023-04-14T02:15:24.152Z,26.72
2023-04-14T02:16:24.216Z,26.73
2023-04-14T02:17:24.216Z,26.72
2023-04-14T02:18:24.206Z,26.72
2023-04-14T02:19:24.199Z,26.72
2023-04-14T02:20:24.236Z,26.72
2023-04-14T02:21:24.259Z,26.72
2023-04-14T02:22:24.257Z,26.73
2023-04-14T02:23:24.272Z,26.72
2023-04-14T02:24:24.270Z,26.73
2023-04-14T02:25:24.323Z,26.72
2023-04-14T02:26:24.307Z,26.72
2023-04-14T02:27:24.328Z,26.73
2023-04-14T02:28:24.359Z,26.70
2023-04-14T02:29:24.348Z,26.72
2023-04-14T02:30:24.560Z,26.72
2023-04-14T02:31:24.438Z,26.72
2023-04-14T02:32:24.421Z,26.72
2023-04-14T02:33:24.427Z,26.72
2023-04-14T02:34:24.437Z,26.70
2023-04-14T02:35:24.486Z,26.72
2023-04-14T02:36:24.497Z,26.70
2023-04-14T02:37:24.491Z,26.69
2023-04-14T02:38:24.564Z,26.69
2023-04-14T02:39:24.522Z,26.70
2023-04-14T02:40:24.536Z,26.72
2023-04-14T02:41:24.566Z,26.69
2023-04-14T02:42:24.577Z,26.69
2023-04-14T02:43:24.606Z,26.72
2023-04-14T02:44:24.610Z,26.70
2023-04-14T02:45:24.648Z,26.69
2023-04-14T02:46:24.689Z,26.73
2023-04-14T02:47:24.783Z,26.72
2023-04-14T02:48:24.686Z,26.69
2023-04-14T02:49:24.684Z,26.69
2023-04-14T02:50:24.697Z,26.70
2023-04-14T02:51:24.701Z,26.70
2023-04-14T02:52:24.724Z,26.72
2023-04-14T02:53:24.761Z,26.70
2023-04-14T02:54:24.748Z,26.72
2023-04-14T02:55:24.746Z,26.69
2023-04-14T02:56:24.778Z,26.70
2023-04-14T02:57:24.791Z,26.68
2023-04-14T02:58:24.801Z,26.70
2023-04-14T02:59:24.799Z,26.70
2023-04-14T03:00:24.812Z,26.72
2023-04-14T03:01:24.846Z,26.70
2023-04-14T03:02:24.882Z,26.69
2023-04-14T03:03:24.836Z,26.70
2023-04-14T03:04:24.864Z,26.69
2023-04-14T03:05:24.829Z,26.69
2023-04-14T03:06:24.827Z,26.69
2023-04-14T03:07:24.857Z,26.70
2023-04-14T03:08:24.873Z,26.69
2023-04-14T03:09:24.857Z,26.69
2023-04-14T03:10:24.893Z,26.69
2023-04-14T03:11:24.877Z,26.70
2023-04-14T03:12:24.891Z,26.72
2023-04-14T03:13:25.099Z,26.70
2023-04-14T03:14:24.905Z,26.69
2023-04-14T03:15:24.918Z,26.73
2023-04-14T03:16:24.978Z,26.73
2023-04-14T03:17:25.011Z,26.75
2023-04-14T03:18:24.943Z,26.73
2023-04-14T03:19:24.958Z,26.75
2023-04-14T03:20:24.962Z,26.76
2023-04-14T03:21:24.976Z,26.76
2023-04-14T03:22:24.975Z,26.79
2023-04-14T03:23:24.970Z,26.82
2023-04-14T03:24:24.991Z,26.80
2023-04-14T03:25:25.009Z,26.82
2023-04-14T03:26:25.027Z,26.85
2023-04-14T03:27:25.096Z,26.85
2023-04-14T03:28:25.141Z,26.89
2023-04-14T03:29:25.182Z,26.89
2023-04-14T03:30:25.204Z,26.89
2023-04-14T03:31:25.310Z,26.90
2023-04-14T03:32:25.393Z,26.91
2023-04-14T03:33:25.408Z,26.91
2023-04-14T03:34:25.443Z,26.90
2023-04-14T03:35:25.489Z,26.91
2023-04-14T03:36:25.559Z,26.93
2023-04-14T03:37:25.604Z,26.96
2023-04-14T03:38:25.639Z,26.97
2023-04-14T03:39:25.644Z,26.97
2023-04-14T03:40:25.701Z,26.97
2023-04-14T03:41:25.719Z,27.01
2023-04-14T03:42:25.778Z,27.01
2023-04-14T03:43:25.861Z,26.99
2023-04-14T03:44:25.858Z,27.00
2023-04-14T03:45:25.843Z,26.99
2023-04-14T03:46:25.942Z,27.00
2023-04-14T03:47:25.945Z,27.00
2023-04-14T03:48:25.957Z,27.00
2023-04-14T03:49:25.961Z,27.00
2023-04-14T03:50:26.021Z,27.00
2023-04-14T03:51:26.009Z,27.03
2023-04-14T03:52:26.004Z,27.03
2023-04-14T03:53:26.028Z,27.01
2023-04-14T03:54:26.029Z,27.06
2023-04-14T03:55:26.066Z,27.04
2023-04-14T03:56:26.108Z,27.06
2023-04-14T03:57:26.128Z,27.06
2023-04-14T03:58:26.147Z,27.09
2023-04-14T03:59:26.126Z,27.06
2023-04-14T04:00:26.179Z,27.09
2023-04-14T04:01:26.182Z,27.10
2023-04-14T04:02:26.323Z,27.10
2023-04-14T04:03:26.589Z,27.11
2023-04-14T04:04:26.325Z,27.10
2023-04-14T04:05:26.284Z,27.11
2023-04-14T04:06:26.283Z,27.13
2023-04-14T04:07:26.300Z,27.11
2023-04-14T04:08:26.278Z,27.14
2023-04-14T04:09:26.292Z,27.13
2023-04-14T04:10:26.310Z,27.14
2023-04-14T04:11:26.292Z,27.13
2023-04-14T04:12:26.343Z,27.17
2023-04-14T04:13:26.377Z,27.18
2023-04-14T04:14:26.350Z,27.17
2023-04-14T04:15:26.352Z,27.18
2023-04-14T04:16:26.371Z,27.18
2023-04-14T04:17:26.400Z,27.21
2023-04-14T04:18:26.424Z,27.20
2023-04-14T04:19:26.407Z,27.23
2023-04-14T04:20:26.426Z,27.24
2023-04-14T04:21:26.420Z,27.21
2023-04-14T04:22:26.392Z,27.29
2023-04-14T04:23:26.438Z,27.24
2023-04-14T04:24:26.440Z,27.27
2023-04-14T04:25:26.440Z,27.27
2023-04-14T04:26:26.445Z,27.29
2023-04-14T04:27:28.458Z,27.33
2023-04-14T04:28:26.464Z,27.29
2023-04-14T04:29:26.509Z,27.31
2023-04-14T04:30:26.482Z,27.33
2023-04-14T04:31:26.493Z,27.34
2023-04-14T04:32:26.723Z,27.34
2023-04-14T04:33:26.526Z,27.34
2023-04-14T04:34:26.517Z,27.37
2023-04-14T04:35:26.516Z,27.38
2023-04-14T04:36:26.500Z,27.37
2023-04-14T04:37:26.530Z,27.38
2023-04-14T04:38:26.559Z,27.37
2023-04-14T04:39:26.555Z,27.40
2023-04-14T04:40:26.545Z,27.41
2023-04-14T04:41:26.554Z,27.43
2023-04-14T04:42:26.571Z,27.41
2023-04-14T04:43:26.573Z,27.43
2023-04-14T04:44:26.603Z,27.44
2023-04-14T04:45:26.639Z,27.44
2023-04-14T04:46:26.619Z,27.43
2023-04-14T04:47:26.680Z,27.44
2023-04-14T04:48:26.605Z,27.44
2023-04-14T04:49:26.635Z,27.44
2023-04-14T04:50:26.669Z,27.44
2023-04-14T04:51:26.647Z,27.45
2023-04-14T04:52:26.657Z,27.47
2023-04-14T04:53:26.690Z,27.44
2023-04-14T04:54:26.693Z,27.47
2023-04-14T04:55:26.683Z,27.47
2023-04-14T04:56:26.708Z,27.47
2023-04-14T04:57:26.699Z,27.47
2023-04-14T04:58:26.733Z,27.48
2023-04-14T04:59:26.752Z,27.47
2023-04-14T05:00:26.734Z,27.45
2023-04-14T05:01:33.806Z,27.47
2023-04-14T05:02:26.847Z,27.45
2023-04-14T05:03:26.758Z,27.45
2023-04-14T05:04:26.850Z,27.47
2023-04-14T05:05:26.746Z,27.47
2023-04-14T05:06:26.737Z,27.47
2023-04-14T05:07:26.716Z,27.45
2023-04-14T05:08:26.757Z,27.48
2023-04-14T05:09:26.711Z,27.45
2023-04-14T05:10:26.708Z,27.48
2023-04-14T05:11:26.680Z,27.45
2023-04-14T05:12:26.689Z,27.47
2023-04-14T05:13:26.664Z,27.47
2023-04-14T05:14:27.552Z,27.50
2023-04-14T05:15:26.757Z,27.48
2023-04-14T05:16:26.646Z,27.48
2023-04-14T05:17:26.667Z,27.48
2023-04-14T05:18:26.667Z,27.48
2023-04-14T05:19:26.644Z,27.47
2023-04-14T05:20:26.616Z,27.48
2023-04-14T05:21:26.628Z,27.48
2023-04-14T05:22:26.617Z,27.37
2023-04-14T05:23:26.592Z,27.17
2023-04-14T05:24:26.597Z,26.76
2023-04-14T05:25:26.633Z,26.40
2023-04-14T05:26:49.033Z,26.09
2023-04-14T05:27:27.584Z,25.51
2023-04-14T05:28:26.587Z,25.09
2023-04-14T05:29:26.611Z,24.70
2023-04-14T05:30:26.550Z,24.29
2023-04-14T05:31:26.552Z,24.11
2023-04-14T05:32:28.865Z,23.85
2023-04-14T05:33:26.526Z,23.64
2023-04-14T05:34:26.552Z,23.52
2023-04-14T05:35:26.533Z,23.42
2023-04-14T05:36:26.527Z,23.37
2023-04-14T05:37:26.500Z,23.46
2023-04-14T05:38:26.695Z,23.54
2023-04-14T05:39:26.505Z,23.63
2023-04-14T05:40:26.516Z,23.76
2023-04-14T05:41:26.488Z,23.88
2023-04-14T05:42:26.456Z,24.04
2023-04-14T05:43:26.472Z,24.15
2023-04-14T05:44:26.688Z,24.29
2023-04-14T05:45:38.453Z,24.36
2023-04-14T05:46:34.934Z,24.51
2023-04-14T05:47:26.544Z,24.66
2023-04-14T05:48:27.206Z,24.79
2023-04-14T05:49:26.558Z,24.93
2023-04-14T05:50:26.659Z,25.07
2023-04-14T05:51:26.664Z,25.17
2023-04-14T05:52:26.672Z,25.30
2023-04-14T05:53:26.650Z,25.40
2023-04-14T05:54:26.728Z,25.54
2023-04-14T05:55:26.772Z,25.64
2023-04-14T05:56:26.850Z,25.77
2023-04-14T05:57:26.867Z,25.88
2023-04-14T05:58:26.919Z,25.98
2023-04-14T05:59:26.937Z,26.05
2023-04-14T06:00:26.898Z,26.18
2023-04-14T06:01:26.923Z,26.22
2023-04-14T06:02:26.986Z,26.34
2023-04-14T06:03:27.207Z,26.42
2023-04-14T06:04:27.097Z,26.52
2023-04-14T06:05:27.078Z,26.60
2023-04-14T06:06:27.126Z,26.68
2023-04-14T06:07:27.170Z,26.75
2023-04-14T06:08:27.230Z,26.85
2023-04-14T06:09:27.728Z,26.87
2023-04-14T06:10:27.305Z,26.96
2023-04-14T06:11:27.339Z,27.03
2023-04-14T06:12:27.319Z,27.09
2023-04-14T06:13:29.050Z,27.15
2023-04-14T06:14:28.439Z,27.23
2023-04-14T06:15:27.355Z,27.29
2023-04-14T06:16:27.381Z,27.36
2023-04-14T06:17:27.422Z,27.41
2023-04-14T06:18:27.343Z,27.45
2023-04-14T06:19:27.733Z,27.54
2023-04-14T06:20:27.320Z,27.54
2023-04-14T06:21:27.337Z,27.60
2023-04-14T06:22:27.281Z,27.61
2023-04-14T06:23:27.295Z,27.66
2023-04-14T06:24:27.287Z,27.71
2023-04-14T06:25:27.310Z,27.75
2023-04-14T06:26:27.312Z,27.80
2023-04-14T06:27:27.315Z,27.82
2023-04-14T06:28:27.300Z,27.87
2023-04-14T06:29:27.295Z,27.91
2023-04-14T06:30:27.293Z,27.95
2023-04-14T06:31:27.317Z,27.95
2023-04-14T06:32:27.303Z,28.01
2023-04-14T06:33:27.269Z,28.02
2023-04-14T06:34:27.255Z,28.05
2023-04-14T06:35:33.474Z,28.09
2023-04-14T06:36:28.247Z,28.12
2023-04-14T06:37:27.232Z,28.15
2023-04-14T06:38:27.269Z,28.16
2023-04-14T06:39:27.243Z,28.18
2023-04-14T06:40:27.218Z,28.20
2023-04-14T06:41:27.227Z,28.20
2023-04-14T06:42:27.213Z,28.19
2023-04-14T06:43:27.225Z,28.25
2023-04-14T06:44:27.181Z,28.22
2023-04-14T06:45:27.196Z,28.25
2023-04-14T06:46:27.285Z,28.23
2023-04-14T06:47:27.225Z,28.25
2023-04-14T06:48:27.224Z,28.26
2023-04-14T06:49:27.214Z,28.29
2023-04-14T06:50:27.234Z,28.29
2023-04-14T06:51:27.294Z,28.30
2023-04-14T06:52:27.343Z,28.32
2023-04-14T06:53:28.262Z,28.35
2023-04-14T06:54:27.477Z,28.38
2023-04-14T06:55:28.279Z,28.38
2023-04-14T06:56:27.592Z,28.36
2023-04-14T06:57:27.640Z,28.40
2023-04-14T06:58:27.786Z,28.42
2023-04-14T06:59:28.257Z,28.40
2023-04-14T07:00:27.884Z,28.42
2023-04-14T07:01:27.899Z,28.45
2023-04-14T07:02:28.025Z,28.45
2023-04-14T07:03:28.040Z,28.46
2023-04-14T07:04:28.092Z,28.42
2023-04-14T07:05:28.105Z,28.45
2023-04-14T07:06:28.776Z,28.45
2023-04-14T07:07:28.251Z,28.47
2023-04-14T07:08:28.276Z,28.45
2023-04-14T07:09:28.404Z,28.46
2023-04-14T07:10:28.387Z,28.46
2023-04-14T07:11:28.503Z,28.49
2023-04-14T07:12:28.500Z,28.47
2023-04-14T07:13:28.560Z,28.49
2023-04-14T07:14:28.606Z,28.50
2023-04-14T07:15:28.684Z,28.52
2023-04-14T07:16:28.771Z,28.50
2023-04-14T07:17:28.745Z,28.56
2023-04-14T07:18:28.794Z,28.55
2023-04-14T07:19:28.857Z,28.59
2023-04-14T07:20:28.887Z,28.60
2023-04-14T07:21:28.920Z,28.59
2023-04-14T07:22:28.994Z,28.63
2023-04-14T07:23:29.034Z,28.60
2023-04-14T07:24:29.105Z,28.64
2023-04-14T07:25:29.133Z,28.62
2023-04-14T07:26:29.264Z,28.63
2023-04-14T07:27:29.196Z,28.62
2023-04-14T07:28:29.332Z,28.60
2023-04-14T07:29:29.360Z,28.63
2023-04-14T07:30:29.357Z,28.62
2023-04-14T07:31:29.414Z,28.60
2023-04-14T07:32:29.481Z,28.63
2023-04-14T07:33:29.504Z,28.62
2023-04-14T07:34:29.762Z,28.59
2023-04-14T07:35:29.489Z,28.57
2023-04-14T07:36:29.555Z,28.56
2023-04-14T07:37:30.228Z,28.53
2023-04-14T07:38:29.533Z,28.50
2023-04-14T07:39:29.785Z,28.43
2023-04-14T07:40:29.540Z,28.38
2023-04-14T07:41:29.561Z,28.38
2023-04-14T07:42:29.632Z,28.38
2023-04-14T07:43:29.684Z,28.34
2023-04-14T07:44:29.755Z,28.34
2023-04-14T07:45:29.691Z,28.32
2023-04-14T07:46:29.737Z,28.32
2023-04-14T07:47:29.744Z,28.34
2023-04-14T07:48:29.748Z,28.34
2023-04-14T07:49:29.755Z,28.34
2023-04-14T07:50:29.713Z,28.35
2023-04-14T07:51:29.730Z,28.39
2023-04-14T07:52:29.747Z,28.39
2023-04-14T07:53:29.809Z,28.42
2023-04-14T07:54:29.913Z,28.42
2023-04-14T07:55:29.875Z,28.46
2023-04-14T07:56:29.941Z,28.46
2023-04-14T07:57:29.923Z,28.46
2023-04-14T07:58:30.187Z,28.45
2023-04-14T07:59:29.993Z,28.45
2023-04-14T08:00:29.976Z,28.43
2023-04-14T08:01:30.015Z,28.36
2023-04-14T08:02:30.193Z,28.32
2023-04-14T08:03:30.274Z,28.29
2023-04-14T08:04:30.206Z,28.26
2023-04-14T08:05:30.272Z,28.22
2023-04-14T08:06:30.290Z,28.20
2023-04-14T08:07:30.294Z,28.16
2023-04-14T08:08:30.300Z,28.13
2023-04-14T08:09:30.303Z,28.11
2023-04-14T08:10:30.335Z,28.05
2023-04-14T08:11:30.282Z,28.04
2023-04-14T08:12:30.280Z,28.01
2023-04-14T08:13:30.295Z,27.98
2023-04-14T08:14:30.317Z,27.95
2023-04-14T08:15:30.776Z,27.92
2023-04-14T08:16:30.403Z,27.85
2023-04-14T08:17:30.361Z,27.87
2023-04-14T08:18:30.424Z,27.81
2023-04-14T08:19:30.441Z,27.82
2023-04-14T08:20:30.488Z,27.77
2023-04-14T08:21:30.502Z,27.78
2023-04-14T08:22:30.560Z,27.75
2023-04-14T08:23:30.635Z,27.71
2023-04-14T08:24:30.620Z,27.69
2023-04-14T08:25:30.632Z,27.69
2023-04-14T08:26:30.698Z,27.66
2023-04-14T08:27:30.669Z,27.66
2023-04-14T08:28:30.721Z,27.61
2023-04-14T08:29:30.765Z,27.62
2023-04-14T08:30:31.285Z,27.62
2023-04-14T08:31:31.055Z,27.64
2023-04-14T08:32:30.892Z,27.58
2023-04-14T08:33:30.942Z,27.55
2023-04-14T08:34:30.965Z,27.55
2023-04-14T08:35:38.395Z,27.53
2023-04-14T08:36:31.934Z,27.50
2023-04-14T08:37:30.939Z,27.50
2023-04-14T08:38:30.949Z,27.48
2023-04-14T08:39:30.932Z,27.48
2023-04-14T08:40:31.304Z,27.48
2023-04-14T08:41:31.067Z,27.47
2023-04-14T08:42:30.935Z,27.48
2023-04-14T08:43:30.872Z,27.48
2023-04-14T08:44:30.896Z,27.45
2023-04-14T08:45:30.928Z,27.48
2023-04-14T08:46:30.908Z,27.48
2023-04-14T08:47:30.980Z,27.44
2023-04-14T08:48:30.970Z,27.48
2023-04-14T08:49:31.068Z,27.45
2023-04-14T08:50:31.301Z,27.45
2023-04-14T08:51:31.792Z,27.47
2023-04-14T08:52:31.227Z,27.50
2023-04-14T08:53:31.290Z,27.50
2023-04-14T08:54:31.344Z,27.54
2023-04-14T08:55:31.806Z,27.57
2023-04-14T08:56:31.386Z,27.61
2023-04-14T08:57:31.556Z,27.65
2023-04-14T08:58:31.473Z,27.69
2023-04-14T08:59:31.514Z,27.71
2023-04-14T09:00:31.471Z,27.78
2023-04-14T09:01:32.601Z,27.82
2023-04-14T09:02:31.591Z,27.88
2023-04-14T09:03:31.686Z,27.91
2023-04-14T09:04:31.594Z,27.95
2023-04-14T09:05:31.477Z,28.01
2023-04-14T09:06:31.527Z,28.05
2023-04-14T09:07:31.446Z,28.08
2023-04-14T09:08:31.475Z,28.13
2023-04-14T09:09:31.487Z,28.20
2023-04-14T09:10:31.439Z,28.22
2023-04-14T09:11:32.327Z,28.26
2023-04-14T09:12:31.424Z,28.25
2023-04-14T09:13:31.436Z,28.30
2023-04-14T09:14:31.429Z,28.35
2023-04-14T09:15:31.525Z,28.36
2023-04-14T09:16:31.443Z,28.40
2023-04-14T09:17:31.477Z,28.45
2023-04-14T09:18:31.474Z,28.47
2023-04-14T09:19:31.438Z,28.52
2023-04-14T09:20:34.890Z,28.52
2023-04-14T09:21:52.501Z,28.56
2023-04-14T09:22:32.373Z,28.59
2023-04-14T09:23:31.394Z,28.63
2023-04-14T09:24:32.704Z,28.64
2023-04-14T09:25:31.344Z,28.67
2023-04-14T09:26:31.366Z,28.67
2023-04-14T09:27:31.315Z,28.70
2023-04-14T09:28:31.303Z,28.74
2023-04-14T09:29:31.310Z,28.74
2023-04-14T09:30:31.287Z,28.77
2023-04-14T09:31:31.353Z,28.77
2023-04-14T09:32:31.394Z,28.79
2023-04-14T09:33:31.292Z,28.83
2023-04-14T09:34:31.458Z,28.80
2023-04-14T09:35:31.282Z,28.81
2023-04-14T09:36:31.256Z,28.87
2023-04-14T09:37:31.273Z,28.87
2023-04-14T09:38:31.224Z,28.89
2023-04-14T09:39:31.222Z,28.90
2023-04-14T09:40:31.231Z,28.93
2023-04-14T09:41:31.216Z,28.94
2023-04-14T09:42:31.246Z,28.94
2023-04-14T09:43:31.233Z,28.93
2023-04-14T09:44:31.284Z,28.94
2023-04-14T09:45:31.201Z,28.90
2023-04-14T09:46:31.255Z,28.91
2023-04-14T09:47:31.216Z,28.91
2023-04-14T09:48:31.282Z,28.89
2023-04-14T09:49:31.257Z,28.90
2023-04-14T09:50:32.838Z,28.84
2023-04-14T09:51:32.349Z,28.87
2023-04-14T09:52:31.492Z,28.81
2023-04-14T09:53:31.520Z,28.81
2023-04-14T09:54:31.656Z,28.76
2023-04-14T09:55:31.644Z,28.74
2023-04-14T09:56:31.830Z,28.73
2023-04-14T09:57:31.698Z,28.71
2023-04-14T09:58:31.711Z,28.71
2023-04-14T09:59:31.823Z,28.70
2023-04-14T10:00:31.787Z,28.67
2023-04-14T10:01:31.941Z,28.67
2023-04-14T10:02:32.013Z,28.67
2023-04-14T10:03:33.354Z,28.66
2023-04-14T10:04:32.055Z,28.63
2023-04-14T10:05:34.517Z,28.60
2023-04-14T10:06:32.104Z,28.64
2023-04-14T10:07:32.075Z,28.63
2023-04-14T10:08:32.058Z,28.60
2023-04-14T10:09:31.999Z,28.60
2023-04-14T10:10:32.013Z,28.59
2023-04-14T10:11:32.035Z,28.59
2023-04-14T10:12:32.040Z,28.60
2023-04-14T10:13:32.019Z,28.60
2023-04-14T10:14:31.973Z,28.60
2023-04-14T10:15:32.047Z,28.62
2023-04-14T10:16:32.206Z,28.60
2023-04-14T10:17:34.016Z,28.60
2023-04-14T10:18:31.946Z,28.60
2023-04-14T10:19:31.942Z,28.63
2023-04-14T10:20:31.981Z,28.63
2023-04-14T10:21:32.073Z,28.64
2023-04-14T10:22:32.131Z,28.64
2023-04-14T10:23:32.133Z,28.67
2023-04-14T10:24:32.245Z,28.69
2023-04-14T10:25:32.260Z,28.71
2023-04-14T10:26:32.324Z,28.73
2023-04-14T10:27:32.419Z,28.73
2023-04-14T10:28:34.300Z,28.76
2023-04-14T10:29:32.509Z,28.76
2023-04-14T10:30:32.567Z,28.80
2023-04-14T10:31:32.938Z,28.77
2023-04-14T10:32:32.720Z,28.80
2023-04-14T10:33:32.735Z,28.76
2023-04-14T10:34:32.776Z,28.81
2023-04-14T10:35:32.844Z,28.76
2023-04-14T10:36:33.349Z,28.76
2023-04-14T10:37:32.961Z,28.79
2023-04-14T10:38:32.994Z,28.77
2023-04-14T10:39:33.067Z,28.76
2023-04-14T10:40:33.192Z,28.71
2023-04-14T10:41:33.387Z,28.70
2023-04-14T10:42:33.126Z,28.66
2023-04-14T10:43:33.160Z,28.63
2023-04-14T10:44:33.153Z,28.57
2023-04-14T10:45:33.184Z,28.55
2023-04-14T10:46:33.414Z,28.52
2023-04-14T10:47:33.129Z,28.46
2023-04-14T10:48:33.174Z,28.43
2023-04-14T10:49:33.182Z,28.42
2023-04-14T10:50:33.204Z,28.38
2023-04-14T10:51:33.257Z,28.36
2023-04-14T10:52:33.234Z,28.35
2023-04-14T10:53:33.269Z,28.30
2023-04-14T10:54:33.271Z,28.30
2023-04-14T10:55:35.034Z,28.29
2023-04-14T10:56:34.310Z,28.29
2023-04-14T10:57:33.291Z,28.26
2023-04-14T10:58:33.312Z,28.26
2023-04-14T10:59:33.301Z,28.27
2023-04-14T11:00:33.263Z,28.25
2023-04-14T11:01:33.336Z,28.25
2023-04-14T11:02:33.580Z,28.23
2023-04-14T11:03:33.389Z,28.23
2023-04-14T11:04:33.422Z,28.23
2023-04-14T11:05:33.317Z,28.23
2023-04-14T11:06:33.358Z,28.22
2023-04-14T11:07:33.367Z,28.22
2023-04-14T11:08:33.329Z,28.20
2023-04-14T11:09:33.340Z,28.22
2023-04-14T11:10:33.432Z,28.23
2023-04-14T11:11:33.386Z,28.23
2023-04-14T11:12:33.357Z,28.22
2023-04-14T11:13:33.404Z,28.23
2023-04-14T11:14:33.392Z,28.23
2023-04-14T11:15:33.377Z,28.23
2023-04-14T11:16:33.464Z,28.23
2023-04-14T11:17:33.529Z,28.25
2023-04-14T11:18:33.438Z,28.26
2023-04-14T11:19:33.456Z,28.22
2023-04-14T11:20:33.400Z,28.25
2023-04-14T11:21:33.430Z,28.23
2023-04-14T11:22:33.470Z,28.26
2023-04-14T11:23:33.436Z,28.25
2023-04-14T11:24:33.442Z,28.26
2023-04-14T11:25:33.450Z,28.22
2023-04-14T11:26:33.489Z,28.26
2023-04-14T11:27:33.872Z,28.22
2023-04-14T11:28:33.496Z,28.22
2023-04-14T11:29:33.521Z,28.25
2023-04-14T11:30:33.510Z,28.22
2023-04-14T11:31:33.571Z,28.22
2023-04-14T11:32:33.927Z,28.22
2023-04-14T11:33:33.493Z,28.23
2023-04-14T11:34:33.549Z,28.23
2023-04-14T11:35:33.510Z,28.22
2023-04-14T11:36:33.511Z,28.22
2023-04-14T11:37:33.871Z,28.20
2023-04-14T11:38:33.553Z,28.22
2023-04-14T11:39:33.562Z,28.22
2023-04-14T11:40:33.559Z,28.20
2023-04-14T11:41:33.519Z,28.23
2023-04-14T11:42:33.568Z,28.19
2023-04-14T11:43:33.561Z,28.19
2023-04-14T11:44:33.538Z,28.19
2023-04-14T11:45:33.547Z,28.19
2023-04-14T11:46:33.659Z,28.20
2023-04-14T11:47:33.597Z,28.19
2023-04-14T11:48:33.618Z,28.19
2023-04-14T11:49:33.567Z,28.18
2023-04-14T11:50:33.602Z,28.16
2023-04-14T11:51:33.605Z,28.16
2023-04-14T11:52:33.588Z,28.16
2023-04-14T11:53:33.634Z,28.16
2023-04-14T11:54:33.691Z,28.15
2023-04-14T11:55:33.642Z,28.16
2023-04-14T11:56:33.661Z,28.16
2023-04-14T11:57:33.682Z,28.15
2023-04-14T11:58:33.698Z,28.15
2023-04-14T11:59:33.674Z,28.15
2023-04-14T12:00:33.712Z,28.15
2023-04-14T12:01:33.655Z,28.15
2023-04-14T12:02:33.863Z,28.15
2023-04-14T12:03:33.877Z,28.15
2023-04-14T12:04:33.927Z,28.13
2023-04-14T12:05:33.867Z,28.15
2023-04-14T12:06:33.743Z,28.15
2023-04-14T12:07:33.734Z,28.13
2023-04-14T12:08:33.733Z,28.15
2023-04-14T12:09:33.772Z,28.13
2023-04-14T12:10:33.761Z,28.13
2023-04-14T12:11:33.761Z,28.12
2023-04-14T12:12:33.811Z,28.13
2023-04-14T12:13:33.783Z,28.18
2023-04-14T12:14:33.795Z,28.13
2023-04-14T12:15:33.797Z,28.15
2023-04-14T12:16:33.848Z,28.12
2023-04-14T12:17:33.849Z,28.11
2023-04-14T12:18:33.833Z,28.09
2023-04-14T12:19:33.872Z,28.09
2023-04-14T12:20:33.904Z,28.05
2023-04-14T12:21:33.979Z,27.99
2023-04-14T12:22:34.041Z,27.94
2023-04-14T12:23:34.021Z,27.91
2023-04-14T12:24:34.065Z,27.88
2023-04-14T12:25:34.049Z,27.82
2023-04-14T12:26:34.074Z,27.78
2023-04-14T12:27:34.066Z,27.71
2023-04-14T12:28:34.092Z,27.68
2023-04-14T12:29:34.108Z,27.68
2023-04-14T12:30:34.080Z,27.61
2023-04-14T12:31:34.123Z,27.61
2023-04-14T12:32:34.182Z,27.60
2023-04-14T12:33:34.211Z,27.61
2023-04-14T12:34:34.267Z,27.62
2023-04-14T12:35:34.314Z,27.62
2023-04-14T12:36:48.587Z,27.61
2023-04-14T12:37:35.349Z,27.65
2023-04-14T12:38:34.349Z,27.64
2023-04-14T12:39:34.332Z,27.66
2023-04-14T12:40:34.361Z,27.69
2023-04-14T12:41:34.309Z,27.68
2023-04-14T12:42:34.306Z,27.69
2023-04-14T12:43:34.284Z,27.68
2023-04-14T12:44:34.288Z,27.68
2023-04-14T12:45:34.316Z,27.71
2023-04-14T12:46:34.273Z,27.72
2023-04-14T12:47:34.368Z,27.71
2023-04-14T12:48:34.287Z,27.74
2023-04-14T12:49:34.275Z,27.77
2023-04-14T12:50:34.271Z,27.77
2023-04-14T12:51:34.279Z,27.75
2023-04-14T12:52:34.334Z,27.80